sensor_id;sensor_type;location;lat;lon;timestamp;P1;durP1;ratioP1;P2;durP2;ratioP2
18776;SDS011;9517;51.174;4.160;2022-12-18T00:02:26;145.87;;;50.17;;
18776;SDS011;9517;51.174;4.160;2022-12-18T00:04:55;150.17;;;52.60;;
18776;SDS011;9517;51.174;4.160;2022-12-18T00:07:22;159.43;;;56.70;;
18776;SDS011;9517;51.174;4.160;2022-12-18T00:09:49;154.57;;;53.33;;
18776;SDS011;9517;51.174;4.160;2022-12-18T00:12:16;172.70;;;62.73;;
18776;SDS011;9517;51.174;4.160;2022-12-18T00:14:44;137.07;;;54.27;;
18776;SDS011;9517;51.174;4.160;2022-12-18T00:17:11;143.50;;;54.43;;
18776;SDS011;9517;51.174;4.160;2022-12-18T00:19:38;119.77;;;44.67;;
18776;SDS011;9517;51.174;4.160;2022-12-18T00:22:06;115.00;;;42.83;;
18776;SDS011;9517;51.174;4.160;2022-12-18T00:24:34;122.97;;;43.40;;
18776;SDS011;9517;51.174;4.160;2022-12-18T00:27:01;125.63;;;43.37;;
18776;SDS011;9517;51.174;4.160;2022-12-18T00:29:28;123.17;;;43.57;;
18776;SDS011;9517;51.174;4.160;2022-12-18T00:31:55;119.00;;;43.20;;
18776;SDS011;9517;51.174;4.160;2022-12-18T00:34:22;127.20;;;45.90;;
18776;SDS011;9517;51.174;4.160;2022-12-18T00:36:49;110.20;;;41.40;;
18776;SDS011;9517;51.174;4.160;2022-12-18T00:39:18;122.47;;;44.47;;
18776;SDS011;9517;51.174;4.160;2022-12-18T00:41:45;112.47;;;44.63;;
18776;SDS011;9517;51.174;4.160;2022-12-18T00:44:29;149.37;;;54.40;;
18776;SDS011;9517;51.174;4.160;2022-12-18T00:46:56;126.17;;;43.83;;
18776;SDS011;9517;51.174;4.160;2022-12-18T00:49:23;124.73;;;45.73;;
18776;SDS011;9517;51.174;4.160;2022-12-18T00:51:51;121.10;;;44.03;;
18776;SDS011;9517;51.174;4.160;2022-12-18T00:54:19;120.93;;;42.77;;
18776;SDS011;9517;51.174;4.160;2022-12-18T00:56:46;123.30;;;43.57;;
18776;SDS011;9517;51.174;4.160;2022-12-18T00:59:13;123.77;;;44.77;;
18776;SDS011;9517;51.174;4.160;2022-12-18T01:01:41;121.97;;;46.03;;
18776;SDS011;9517;51.174;4.160;2022-12-18T01:04:08;129.67;;;45.40;;
18776;SDS011;9517;51.174;4.160;2022-12-18T01:06:35;114.73;;;44.27;;
18776;SDS011;9517;51.174;4.160;2022-12-18T01:09:02;122.80;;;45.07;;
18776;SDS011;9517;51.174;4.160;2022-12-18T01:11:31;108.00;;;42.43;;
18776;SDS011;9517;51.174;4.160;2022-12-18T01:13:58;112.50;;;45.40;;
18776;SDS011;9517;51.174;4.160;2022-12-18T01:16:25;117.67;;;46.17;;
18776;SDS011;9517;51.174;4.160;2022-12-18T01:18:53;122.70;;;47.73;;
18776;SDS011;9517;51.174;4.160;2022-12-18T01:21:20;116.77;;;45.40;;
18776;SDS011;9517;51.174;4.160;2022-12-18T01:23:50;120.30;;;45.93;;
18776;SDS011;9517;51.174;4.160;2022-12-18T01:26:18;121.30;;;48.27;;
18776;SDS011;9517;51.174;4.160;2022-12-18T01:28:48;119.00;;;45.53;;
18776;SDS011;9517;51.174;4.160;2022-12-18T01:31:17;129.40;;;47.40;;
18776;SDS011;9517;51.174;4.160;2022-12-18T01:33:45;109.87;;;42.60;;
18776;SDS011;9517;51.174;4.160;2022-12-18T01:36:17;117.27;;;44.13;;
18776;SDS011;9517;51.174;4.160;2022-12-18T01:38:45;118.77;;;45.03;;
18776;SDS011;9517;51.174;4.160;2022-12-18T01:41:13;120.23;;;43.87;;
18776;SDS011;9517;51.174;4.160;2022-12-18T01:43:44;116.63;;;45.03;;
18776;SDS011;9517;51.174;4.160;2022-12-18T01:46:15;121.37;;;44.60;;
18776;SDS011;9517;51.174;4.160;2022-12-18T01:48:44;113.43;;;43.50;;
18776;SDS011;9517;51.174;4.160;2022-12-18T01:51:14;123.10;;;42.50;;
18776;SDS011;9517;51.174;4.160;2022-12-18T05:10:08;75.77;;;31.33;;
18776;SDS011;9517;51.174;4.160;2022-12-18T05:12:36;75.43;;;32.33;;
18776;SDS011;9517;51.174;4.160;2022-12-18T05:15:23;78.93;;;32.33;;
18776;SDS011;9517;51.174;4.160;2022-12-18T05:17:50;74.40;;;33.83;;
18776;SDS011;9517;51.174;4.160;2022-12-18T05:20:17;78.93;;;34.30;;
18776;SDS011;9517;51.174;4.160;2022-12-18T05:22:44;76.67;;;32.93;;
18776;SDS011;9517;51.174;4.160;2022-12-18T05:25:13;79.93;;;34.93;;
18776;SDS011;9517;51.174;4.160;2022-12-18T05:27:40;73.90;;;32.80;;
18776;SDS011;9517;51.174;4.160;2022-12-18T05:30:08;82.73;;;32.53;;
18776;SDS011;9517;51.174;4.160;2022-12-18T05:32:36;80.03;;;32.53;;
18776;SDS011;9517;51.174;4.160;2022-12-18T05:35:04;84.67;;;33.53;;
18776;SDS011;9517;51.174;4.160;2022-12-18T05:37:32;74.73;;;30.77;;
18776;SDS011;9517;51.174;4.160;2022-12-18T05:40:00;79.90;;;33.23;;
18776;SDS011;9517;51.174;4.160;2022-12-18T05:42:28;76.67;;;31.70;;
18776;SDS011;9517;51.174;4.160;2022-12-18T05:44:56;72.80;;;31.70;;
18776;SDS011;9517;51.174;4.160;2022-12-18T05:47:23;77.90;;;32.10;;
18776;SDS011;9517;51.174;4.160;2022-12-18T05:49:50;68.53;;;31.37;;
18776;SDS011;9517;51.174;4.160;2022-12-18T05:52:17;69.80;;;30.17;;
18776;SDS011;9517;51.174;4.160;2022-12-18T05:54:44;77.90;;;32.67;;
18776;SDS011;9517;51.174;4.160;2022-12-18T05:57:11;71.57;;;29.97;;
18776;SDS011;9517;51.174;4.160;2022-12-18T05:59:40;74.77;;;30.80;;
18776;SDS011;9517;51.174;4.160;2022-12-18T06:02:07;64.67;;;29.43;;
18776;SDS011;9517;51.174;4.160;2022-12-18T06:04:34;69.40;;;31.47;;
18776;SDS011;9517;51.174;4.160;2022-12-18T06:07:01;68.53;;;32.07;;
18776;SDS011;9517;51.174;4.160;2022-12-18T06:09:29;68.83;;;30.30;;
18776;SDS011;9517;51.174;4.160;2022-12-18T06:11:57;71.20;;;31.40;;
18776;SDS011;9517;51.174;4.160;2022-12-18T06:14:24;67.60;;;29.17;;
18776;SDS011;9517;51.174;4.160;2022-12-18T06:16:52;72.50;;;29.47;;
18776;SDS011;9517;51.174;4.160;2022-12-18T06:19:20;63.13;;;29.87;;
18776;SDS011;9517;51.174;4.160;2022-12-18T06:21:47;66.90;;;28.83;;
18776;SDS011;9517;51.174;4.160;2022-12-18T06:24:14;62.83;;;28.23;;
18776;SDS011;9517;51.174;4.160;2022-12-18T06:26:41;65.10;;;28.10;;
18776;SDS011;9517;51.174;4.160;2022-12-18T06:29:08;65.93;;;28.03;;
18776;SDS011;9517;51.174;4.160;2022-12-18T06:31:35;62.60;;;26.90;;
18776;SDS011;9517;51.174;4.160;2022-12-18T06:34:04;65.03;;;28.97;;
18776;SDS011;9517;51.174;4.160;2022-12-18T06:36:31;63.90;;;27.30;;
18776;SDS011;9517;51.174;4.160;2022-12-18T06:38:58;66.30;;;28.47;;
18776;SDS011;9517;51.174;4.160;2022-12-18T06:41:26;63.03;;;28.00;;
18776;SDS011;9517;51.174;4.160;2022-12-18T06:43:53;59.10;;;26.83;;
18776;SDS011;9517;51.174;4.160;2022-12-18T06:46:20;56.53;;;27.30;;
18776;SDS011;9517;51.174;4.160;2022-12-18T06:48:48;64.70;;;27.07;;
18776;SDS011;9517;51.174;4.160;2022-12-18T06:51:18;57.83;;;27.07;;
18776;SDS011;9517;51.174;4.160;2022-12-18T06:53:46;63.63;;;28.07;;
18776;SDS011;9517;51.174;4.160;2022-12-18T06:56:14;67.83;;;27.87;;
18776;SDS011;9517;51.174;4.160;2022-12-18T06:58:41;63.10;;;27.90;;
18776;SDS011;9517;51.174;4.160;2022-12-18T07:01:09;64.37;;;28.07;;
18776;SDS011;9517;51.174;4.160;2022-12-18T07:03:37;62.13;;;27.97;;
18776;SDS011;9517;51.174;4.160;2022-12-18T07:06:05;61.43;;;28.93;;
18776;SDS011;9517;51.174;4.160;2022-12-18T07:08:34;66.23;;;28.83;;
18776;SDS011;9517;51.174;4.160;2022-12-18T07:11:02;63.37;;;27.70;;
18776;SDS011;9517;51.174;4.160;2022-12-18T07:13:30;56.03;;;26.57;;
18776;SDS011;9517;51.174;4.160;2022-12-18T07:16:02;66.80;;;28.73;;
18776;SDS011;9517;51.174;4.160;2022-12-18T07:18:33;68.03;;;27.23;;
18776;SDS011;9517;51.174;4.160;2022-12-18T07:21:02;68.33;;;28.03;;
18776;SDS011;9517;51.174;4.160;2022-12-18T07:23:31;57.90;;;26.87;;
18776;SDS011;9517;51.174;4.160;2022-12-18T07:26:01;59.17;;;27.60;;
18776;SDS011;9517;51.174;4.160;2022-12-18T07:28:29;60.33;;;26.33;;
18776;SDS011;9517;51.174;4.160;2022-12-18T07:30:55;64.70;;;27.00;;
18776;SDS011;9517;51.174;4.160;2022-12-18T07:33:23;68.00;;;28.13;;
18776;SDS011;9517;51.174;4.160;2022-12-18T07:35:51;59.90;;;27.27;;
18776;SDS011;9517;51.174;4.160;2022-12-18T07:38:18;55.83;;;26.23;;
18776;SDS011;9517;51.174;4.160;2022-12-18T07:40:46;58.60;;;25.93;;
18776;SDS011;9517;51.174;4.160;2022-12-18T07:43:13;60.13;;;27.50;;
18776;SDS011;9517;51.174;4.160;2022-12-18T07:45:41;60.67;;;27.23;;
18776;SDS011;9517;51.174;4.160;2022-12-18T07:48:08;61.33;;;27.83;;
18776;SDS011;9517;51.174;4.160;2022-12-18T07:50:38;58.03;;;27.30;;
18776;SDS011;9517;51.174;4.160;2022-12-18T07:53:05;59.73;;;28.20;;
18776;SDS011;9517;51.174;4.160;2022-12-18T07:55:32;59.23;;;26.37;;
18776;SDS011;9517;51.174;4.160;2022-12-18T07:58:02;56.70;;;26.50;;
18776;SDS011;9517;51.174;4.160;2022-12-18T08:00:29;58.67;;;25.13;;
18776;SDS011;9517;51.174;4.160;2022-12-18T08:02:56;53.53;;;25.20;;
18776;SDS011;9517;51.174;4.160;2022-12-18T08:05:24;57.60;;;26.57;;
18776;SDS011;9517;51.174;4.160;2022-12-18T08:07:51;54.63;;;25.37;;
18776;SDS011;9517;51.174;4.160;2022-12-18T08:10:18;53.00;;;24.30;;
18776;SDS011;9517;51.174;4.160;2022-12-18T08:12:48;58.13;;;25.67;;
18776;SDS011;9517;51.174;4.160;2022-12-18T08:15:17;52.40;;;24.03;;
18776;SDS011;9517;51.174;4.160;2022-12-18T08:17:44;51.77;;;24.00;;
18776;SDS011;9517;51.174;4.160;2022-12-18T08:20:11;56.50;;;24.70;;
18776;SDS011;9517;51.174;4.160;2022-12-18T08:22:39;50.03;;;23.13;;
18776;SDS011;9517;51.174;4.160;2022-12-18T08:25:07;48.63;;;23.60;;
18776;SDS011;9517;51.174;4.160;2022-12-18T08:27:35;54.33;;;24.17;;
18776;SDS011;9517;51.174;4.160;2022-12-18T08:30:02;51.63;;;24.07;;
18776;SDS011;9517;51.174;4.160;2022-12-18T08:32:32;55.50;;;26.17;;
18776;SDS011;9517;51.174;4.160;2022-12-18T08:34:59;52.13;;;25.37;;
18776;SDS011;9517;51.174;4.160;2022-12-18T08:37:28;53.37;;;25.53;;
18776;SDS011;9517;51.174;4.160;2022-12-18T08:39:58;57.57;;;25.87;;
18776;SDS011;9517;51.174;4.160;2022-12-18T08:42:25;51.83;;;24.73;;
18776;SDS011;9517;51.174;4.160;2022-12-18T08:45:09;50.47;;;24.67;;
18776;SDS011;9517;51.174;4.160;2022-12-18T08:47:38;56.77;;;26.37;;
18776;SDS011;9517;51.174;4.160;2022-12-18T08:50:05;50.70;;;23.97;;
18776;SDS011;9517;51.174;4.160;2022-12-18T08:52:32;51.43;;;23.87;;
18776;SDS011;9517;51.174;4.160;2022-12-18T08:54:59;50.67;;;25.70;;
18776;SDS011;9517;51.174;4.160;2022-12-18T08:57:26;50.90;;;24.23;;
18776;SDS011;9517;51.174;4.160;2022-12-18T08:59:53;52.10;;;25.27;;
18776;SDS011;9517;51.174;4.160;2022-12-18T09:02:20;55.43;;;25.23;;
18776;SDS011;9517;51.174;4.160;2022-12-18T09:04:49;52.30;;;24.13;;
18776;SDS011;9517;51.174;4.160;2022-12-18T09:07:16;48.53;;;22.83;;
18776;SDS011;9517;51.174;4.160;2022-12-18T09:09:43;48.53;;;23.90;;
18776;SDS011;9517;51.174;4.160;2022-12-18T09:12:10;54.63;;;25.93;;
18776;SDS011;9517;51.174;4.160;2022-12-18T09:14:37;58.33;;;28.50;;
18776;SDS011;9517;51.174;4.160;2022-12-18T09:17:04;60.63;;;30.07;;
18776;SDS011;9517;51.174;4.160;2022-12-18T09:19:31;56.77;;;30.23;;
18776;SDS011;9517;51.174;4.160;2022-12-18T09:22:00;42.77;;;21.60;;
18776;SDS011;9517;51.174;4.160;2022-12-18T09:24:27;43.83;;;22.43;;
18776;SDS011;9517;51.174;4.160;2022-12-18T09:26:54;44.23;;;20.17;;
18776;SDS011;9517;51.174;4.160;2022-12-18T09:29:21;45.70;;;21.03;;
18776;SDS011;9517;51.174;4.160;2022-12-18T09:31:48;46.73;;;22.07;;
18776;SDS011;9517;51.174;4.160;2022-12-18T09:34:15;43.67;;;22.47;;
18776;SDS011;9517;51.174;4.160;2022-12-18T09:36:43;42.70;;;20.17;;
18776;SDS011;9517;51.174;4.160;2022-12-18T09:39:11;37.47;;;20.07;;
18776;SDS011;9517;51.174;4.160;2022-12-18T09:41:45;40.57;;;20.17;;
18776;SDS011;9517;51.174;4.160;2022-12-18T09:44:20;38.33;;;19.60;;
18776;SDS011;9517;51.174;4.160;2022-12-18T09:46:53;41.40;;;20.00;;
18776;SDS011;9517;51.174;4.160;2022-12-18T09:49:28;40.70;;;20.23;;
18776;SDS011;9517;51.174;4.160;2022-12-18T09:51:59;42.67;;;20.87;;
18776;SDS011;9517;51.174;4.160;2022-12-18T09:54:33;39.90;;;18.37;;
18776;SDS011;9517;51.174;4.160;2022-12-18T09:57:04;35.40;;;17.90;;
18776;SDS011;9517;51.174;4.160;2022-12-18T09:59:33;39.10;;;17.87;;
18776;SDS011;9517;51.174;4.160;2022-12-18T10:02:14;38.37;;;19.33;;
18776;SDS011;9517;51.174;4.160;2022-12-18T10:04:42;33.57;;;17.10;;
18776;SDS011;9517;51.174;4.160;2022-12-18T10:07:13;38.13;;;18.43;;
18776;SDS011;9517;51.174;4.160;2022-12-18T10:09:48;33.70;;;17.77;;
18776;SDS011;9517;51.174;4.160;2022-12-18T10:12:23;34.80;;;17.30;;
18776;SDS011;9517;51.174;4.160;2022-12-18T10:15:00;31.53;;;16.57;;
18776;SDS011;9517;51.174;4.160;2022-12-18T10:17:34;34.73;;;17.60;;
18776;SDS011;9517;51.174;4.160;2022-12-18T10:20:10;36.13;;;18.00;;
18776;SDS011;9517;51.174;4.160;2022-12-18T10:22:47;34.83;;;16.53;;
18776;SDS011;9517;51.174;4.160;2022-12-18T10:25:22;32.37;;;16.50;;
18776;SDS011;9517;51.174;4.160;2022-12-18T10:27:54;34.00;;;17.27;;
18776;SDS011;9517;51.174;4.160;2022-12-18T10:30:24;34.80;;;17.63;;
18776;SDS011;9517;51.174;4.160;2022-12-18T10:32:52;35.07;;;17.27;;
18776;SDS011;9517;51.174;4.160;2022-12-18T10:35:20;30.83;;;16.30;;
18776;SDS011;9517;51.174;4.160;2022-12-18T10:37:59;36.03;;;17.57;;
18776;SDS011;9517;51.174;4.160;2022-12-18T10:40:33;33.90;;;16.17;;
18776;SDS011;9517;51.174;4.160;2022-12-18T10:43:16;34.50;;;17.27;;
18776;SDS011;9517;51.174;4.160;2022-12-18T10:45:57;37.60;;;16.80;;
18776;SDS011;9517;51.174;4.160;2022-12-18T10:48:26;30.97;;;16.03;;
18776;SDS011;9517;51.174;4.160;2022-12-18T10:50:54;34.27;;;17.37;;
18776;SDS011;9517;51.174;4.160;2022-12-18T10:53:22;36.80;;;17.63;;
18776;SDS011;9517;51.174;4.160;2022-12-18T10:55:52;32.87;;;17.13;;
18776;SDS011;9517;51.174;4.160;2022-12-18T10:58:23;33.07;;;16.73;;
18776;SDS011;9517;51.174;4.160;2022-12-18T11:01:01;31.40;;;16.30;;
18776;SDS011;9517;51.174;4.160;2022-12-18T11:03:34;30.93;;;15.73;;
18776;SDS011;9517;51.174;4.160;2022-12-18T11:06:03;32.07;;;16.10;;
18776;SDS011;9517;51.174;4.160;2022-12-18T11:08:32;29.40;;;14.70;;
18776;SDS011;9517;51.174;4.160;2022-12-18T11:11:01;31.80;;;15.10;;
18776;SDS011;9517;51.174;4.160;2022-12-18T11:13:29;31.33;;;14.70;;
18776;SDS011;9517;51.174;4.160;2022-12-18T11:15:57;27.97;;;15.40;;
18776;SDS011;9517;51.174;4.160;2022-12-18T11:18:26;29.20;;;15.20;;
18776;SDS011;9517;51.174;4.160;2022-12-18T11:20:56;30.13;;;15.13;;
18776;SDS011;9517;51.174;4.160;2022-12-18T11:23:26;30.63;;;15.53;;
18776;SDS011;9517;51.174;4.160;2022-12-18T11:25:54;31.77;;;16.03;;
18776;SDS011;9517;51.174;4.160;2022-12-18T11:31:22;29.70;;;15.77;;
18776;SDS011;9517;51.174;4.160;2022-12-18T11:33:52;31.30;;;15.93;;
18776;SDS011;9517;51.174;4.160;2022-12-18T11:36:26;28.70;;;15.53;;
18776;SDS011;9517;51.174;4.160;2022-12-18T11:38:57;30.43;;;17.03;;
18776;SDS011;9517;51.174;4.160;2022-12-18T11:41:32;30.77;;;15.47;;
18776;SDS011;9517;51.174;4.160;2022-12-18T11:44:26;29.80;;;15.83;;
18776;SDS011;9517;51.174;4.160;2022-12-18T11:46:55;31.57;;;15.63;;
18776;SDS011;9517;51.174;4.160;2022-12-18T11:49:32;33.37;;;18.13;;
18776;SDS011;9517;51.174;4.160;2022-12-18T11:52:01;41.97;;;22.13;;
18776;SDS011;9517;51.174;4.160;2022-12-18T11:54:36;36.47;;;20.30;;
18776;SDS011;9517;51.174;4.160;2022-12-18T11:57:05;35.17;;;18.57;;
18776;SDS011;9517;51.174;4.160;2022-12-18T11:59:40;31.20;;;16.67;;
18776;SDS011;9517;51.174;4.160;2022-12-18T12:02:19;30.60;;;16.43;;
18776;SDS011;9517;51.174;4.160;2022-12-18T12:07:55;33.80;;;18.20;;
18776;SDS011;9517;51.174;4.160;2022-12-18T12:10:34;37.47;;;19.00;;
18776;SDS011;9517;51.174;4.160;2022-12-18T12:13:15;31.03;;;16.27;;
18776;SDS011;9517;51.174;4.160;2022-12-18T12:15:54;31.00;;;16.23;;
18776;SDS011;9517;51.174;4.160;2022-12-18T12:18:31;35.00;;;18.63;;
18776;SDS011;9517;51.174;4.160;2022-12-18T12:21:09;34.30;;;16.67;;
18776;SDS011;9517;51.174;4.160;2022-12-18T12:27:06;35.67;;;18.40;;
18776;SDS011;9517;51.174;4.160;2022-12-18T12:29:42;37.83;;;19.00;;
18776;SDS011;9517;51.174;4.160;2022-12-18T12:32:22;37.37;;;19.50;;
18776;SDS011;9517;51.174;4.160;2022-12-18T12:35:12;34.67;;;17.70;;
18776;SDS011;9517;51.174;4.160;2022-12-18T12:37:50;34.63;;;18.03;;
18776;SDS011;9517;51.174;4.160;2022-12-18T12:40:31;33.23;;;18.00;;
18776;SDS011;9517;51.174;4.160;2022-12-18T12:43:02;40.00;;;19.20;;
18776;SDS011;9517;51.174;4.160;2022-12-18T12:45:39;32.47;;;18.13;;
18776;SDS011;9517;51.174;4.160;2022-12-18T12:48:13;34.60;;;17.87;;
18776;SDS011;9517;51.174;4.160;2022-12-18T12:50:44;35.93;;;18.67;;
18776;SDS011;9517;51.174;4.160;2022-12-18T12:53:15;33.93;;;18.27;;
18776;SDS011;9517;51.174;4.160;2022-12-18T12:55:49;35.17;;;18.17;;
18776;SDS011;9517;51.174;4.160;2022-12-18T12:58:19;32.90;;;18.37;;
18776;SDS011;9517;51.174;4.160;2022-12-18T13:00:58;37.47;;;20.00;;
18776;SDS011;9517;51.174;4.160;2022-12-18T13:03:45;38.80;;;19.50;;
18776;SDS011;9517;51.174;4.160;2022-12-18T13:06:19;44.10;;;21.03;;
18776;SDS011;9517;51.174;4.160;2022-12-18T13:08:55;34.50;;;18.30;;
18776;SDS011;9517;51.174;4.160;2022-12-18T13:11:31;37.27;;;20.47;;
18776;SDS011;9517;51.174;4.160;2022-12-18T13:14:20;34.37;;;18.23;;
18776;SDS011;9517;51.174;4.160;2022-12-18T13:16:49;34.63;;;18.47;;
18776;SDS011;9517;51.174;4.160;2022-12-18T13:19:23;33.63;;;19.40;;
18776;SDS011;9517;51.174;4.160;2022-12-18T13:21:52;35.37;;;18.00;;
18776;SDS011;9517;51.174;4.160;2022-12-18T13:24:23;32.50;;;17.83;;
18776;SDS011;9517;51.174;4.160;2022-12-18T13:26:53;34.07;;;17.97;;
18776;SDS011;9517;51.174;4.160;2022-12-18T13:32:19;33.30;;;18.73;;
18776;SDS011;9517;51.174;4.160;2022-12-18T13:34:49;33.50;;;17.77;;
18776;SDS011;9517;51.174;4.160;2022-12-18T13:37:55;34.10;;;17.73;;
18776;SDS011;9517;51.174;4.160;2022-12-18T13:43:26;34.83;;;18.97;;
18776;SDS011;9517;51.174;4.160;2022-12-18T13:46:17;35.83;;;18.70;;
18776;SDS011;9517;51.174;4.160;2022-12-18T13:48:54;32.23;;;18.70;;
18776;SDS011;9517;51.174;4.160;2022-12-18T13:51:25;34.70;;;18.67;;
18776;SDS011;9517;51.174;4.160;2022-12-18T13:53:54;35.17;;;19.73;;
18776;SDS011;9517;51.174;4.160;2022-12-18T13:56:24;32.87;;;17.80;;
18776;SDS011;9517;51.174;4.160;2022-12-18T13:59:12;33.73;;;18.53;;
18776;SDS011;9517;51.174;4.160;2022-12-18T14:01:41;36.87;;;19.30;;
18776;SDS011;9517;51.174;4.160;2022-12-18T14:04:18;39.03;;;19.83;;
18776;SDS011;9517;51.174;4.160;2022-12-18T14:06:49;34.90;;;19.17;;
18776;SDS011;9517;51.174;4.160;2022-12-18T14:09:19;35.53;;;19.03;;
18776;SDS011;9517;51.174;4.160;2022-12-18T14:11:50;37.93;;;19.50;;
18776;SDS011;9517;51.174;4.160;2022-12-18T14:14:40;34.40;;;18.60;;
18776;SDS011;9517;51.174;4.160;2022-12-18T14:17:10;33.67;;;18.63;;
18776;SDS011;9517;51.174;4.160;2022-12-18T14:19:40;38.00;;;20.13;;
18776;SDS011;9517;51.174;4.160;2022-12-18T14:22:14;38.17;;;21.23;;
18776;SDS011;9517;51.174;4.160;2022-12-18T14:24:43;36.40;;;19.33;;
18776;SDS011;9517;51.174;4.160;2022-12-18T14:27:20;36.47;;;19.63;;
18776;SDS011;9517;51.174;4.160;2022-12-18T14:29:50;37.57;;;20.73;;
18776;SDS011;9517;51.174;4.160;2022-12-18T14:32:18;37.47;;;20.40;;
18776;SDS011;9517;51.174;4.160;2022-12-18T14:34:47;38.57;;;20.37;;
18776;SDS011;9517;51.174;4.160;2022-12-18T14:37:17;39.60;;;22.03;;
18776;SDS011;9517;51.174;4.160;2022-12-18T14:39:54;42.40;;;22.30;;
18776;SDS011;9517;51.174;4.160;2022-12-18T14:42:23;42.33;;;22.67;;
18776;SDS011;9517;51.174;4.160;2022-12-18T14:47:55;41.53;;;20.33;;
18776;SDS011;9517;51.174;4.160;2022-12-18T14:50:22;41.07;;;21.53;;
18776;SDS011;9517;51.174;4.160;2022-12-18T14:52:51;40.30;;;21.13;;
18776;SDS011;9517;51.174;4.160;2022-12-18T14:55:18;44.20;;;21.83;;
18776;SDS011;9517;51.174;4.160;2022-12-18T14:57:48;40.40;;;21.87;;
18776;SDS011;9517;51.174;4.160;2022-12-18T15:00:18;43.27;;;22.60;;
18776;SDS011;9517;51.174;4.160;2022-12-18T15:02:47;42.70;;;22.90;;
18776;SDS011;9517;51.174;4.160;2022-12-18T15:05:18;43.00;;;22.10;;
18776;SDS011;9517;51.174;4.160;2022-12-18T15:07:47;40.77;;;21.53;;
18776;SDS011;9517;51.174;4.160;2022-12-18T15:10:17;43.77;;;22.63;;
18776;SDS011;9517;51.174;4.160;2022-12-18T15:12:46;44.17;;;23.00;;
18776;SDS011;9517;51.174;4.160;2022-12-18T15:18:13;43.43;;;22.93;;
18776;SDS011;9517;51.174;4.160;2022-12-18T15:20:43;42.83;;;22.73;;
18776;SDS011;9517;51.174;4.160;2022-12-18T15:23:14;44.20;;;23.30;;
18776;SDS011;9517;51.174;4.160;2022-12-18T15:25:44;47.07;;;23.70;;
18776;SDS011;9517;51.174;4.160;2022-12-18T15:28:17;46.70;;;23.80;;
18776;SDS011;9517;51.174;4.160;2022-12-18T15:30:58;45.37;;;22.90;;
18776;SDS011;9517;51.174;4.160;2022-12-18T15:33:29;46.30;;;22.50;;
18776;SDS011;9517;51.174;4.160;2022-12-18T15:35:57;48.60;;;23.10;;
18776;SDS011;9517;51.174;4.160;2022-12-18T15:38:26;47.90;;;23.53;;
18776;SDS011;9517;51.174;4.160;2022-12-18T15:40:55;49.80;;;26.23;;
18776;SDS011;9517;51.174;4.160;2022-12-18T15:43:22;45.80;;;23.47;;
18776;SDS011;9517;51.174;4.160;2022-12-18T15:46:03;50.30;;;23.90;;
18776;SDS011;9517;51.174;4.160;2022-12-18T15:48:32;48.80;;;24.03;;
18776;SDS011;9517;51.174;4.160;2022-12-18T15:51:00;49.03;;;25.17;;
18776;SDS011;9517;51.174;4.160;2022-12-18T15:53:29;47.03;;;24.40;;
18776;SDS011;9517;51.174;4.160;2022-12-18T15:56:00;49.77;;;24.33;;
18776;SDS011;9517;51.174;4.160;2022-12-18T15:58:44;45.40;;;22.93;;
18776;SDS011;9517;51.174;4.160;2022-12-18T16:01:11;47.37;;;22.87;;
18776;SDS011;9517;51.174;4.160;2022-12-18T16:03:38;49.57;;;25.47;;
18776;SDS011;9517;51.174;4.160;2022-12-18T16:06:05;48.17;;;24.70;;
18776;SDS011;9517;51.174;4.160;2022-12-18T16:08:32;48.13;;;25.37;;
18776;SDS011;9517;51.174;4.160;2022-12-18T16:11:01;51.27;;;24.60;;
18776;SDS011;9517;51.174;4.160;2022-12-18T16:13:28;45.40;;;23.40;;
18776;SDS011;9517;51.174;4.160;2022-12-18T16:15:55;53.63;;;25.17;;
18776;SDS011;9517;51.174;4.160;2022-12-18T16:18:22;46.63;;;22.83;;
18776;SDS011;9517;51.174;4.160;2022-12-18T16:20:49;47.37;;;25.47;;
18776;SDS011;9517;51.174;4.160;2022-12-18T16:23:16;48.77;;;24.03;;
18776;SDS011;9517;51.174;4.160;2022-12-18T16:25:43;46.03;;;23.50;;
18776;SDS011;9517;51.174;4.160;2022-12-18T16:28:12;50.63;;;24.33;;
18776;SDS011;9517;51.174;4.160;2022-12-18T16:30:39;49.30;;;23.57;;
18776;SDS011;9517;51.174;4.160;2022-12-18T16:33:06;45.23;;;22.13;;
18776;SDS011;9517;51.174;4.160;2022-12-18T16:35:34;45.17;;;22.73;;
18776;SDS011;9517;51.174;4.160;2022-12-18T16:38:02;47.13;;;23.40;;
18776;SDS011;9517;51.174;4.160;2022-12-18T16:40:30;44.67;;;22.97;;
18776;SDS011;9517;51.174;4.160;2022-12-18T16:42:58;43.03;;;22.87;;
18776;SDS011;9517;51.174;4.160;2022-12-18T16:45:28;49.23;;;22.80;;
18776;SDS011;9517;51.174;4.160;2022-12-18T16:47:58;48.97;;;23.43;;
18776;SDS011;9517;51.174;4.160;2022-12-18T16:50:25;45.97;;;23.33;;
18776;SDS011;9517;51.174;4.160;2022-12-18T16:52:52;46.47;;;22.63;;
18776;SDS011;9517;51.174;4.160;2022-12-18T16:55:19;45.10;;;23.60;;
18776;SDS011;9517;51.174;4.160;2022-12-18T16:57:46;54.63;;;25.20;;
18776;SDS011;9517;51.174;4.160;2022-12-18T17:00:13;55.43;;;26.13;;
18776;SDS011;9517;51.174;4.160;2022-12-18T17:02:43;50.37;;;24.60;;
18776;SDS011;9517;51.174;4.160;2022-12-18T17:05:10;48.00;;;22.80;;
18776;SDS011;9517;51.174;4.160;2022-12-18T17:07:37;49.13;;;23.30;;
18776;SDS011;9517;51.174;4.160;2022-12-18T17:10:05;49.23;;;23.60;;
18776;SDS011;9517;51.174;4.160;2022-12-18T17:12:32;50.87;;;25.47;;
18776;SDS011;9517;51.174;4.160;2022-12-18T17:15:00;49.17;;;23.67;;
18776;SDS011;9517;51.174;4.160;2022-12-18T17:17:27;45.47;;;22.10;;
18776;SDS011;9517;51.174;4.160;2022-12-18T17:19:56;50.60;;;24.37;;
18776;SDS011;9517;51.174;4.160;2022-12-18T17:22:22;46.70;;;22.73;;
18776;SDS011;9517;51.174;4.160;2022-12-18T17:24:49;49.13;;;22.90;;
18776;SDS011;9517;51.174;4.160;2022-12-18T17:27:17;42.50;;;22.40;;
18776;SDS011;9517;51.174;4.160;2022-12-18T17:29:44;48.40;;;24.03;;
18776;SDS011;9517;51.174;4.160;2022-12-18T17:32:11;55.37;;;24.27;;
18776;SDS011;9517;51.174;4.160;2022-12-18T17:34:38;45.13;;;23.30;;
18776;SDS011;9517;51.174;4.160;2022-12-18T17:37:06;49.07;;;23.47;;
18776;SDS011;9517;51.174;4.160;2022-12-18T17:39:34;49.47;;;24.93;;
18776;SDS011;9517;51.174;4.160;2022-12-18T17:42:01;51.67;;;24.93;;
18776;SDS011;9517;51.174;4.160;2022-12-18T17:44:28;49.73;;;24.50;;
18776;SDS011;9517;51.174;4.160;2022-12-18T17:46:55;53.30;;;24.57;;
18776;SDS011;9517;51.174;4.160;2022-12-18T17:49:22;52.43;;;24.40;;
18776;SDS011;9517;51.174;4.160;2022-12-18T17:51:49;50.20;;;24.63;;
18776;SDS011;9517;51.174;4.160;2022-12-18T17:54:18;52.57;;;24.67;;
18776;SDS011;9517;51.174;4.160;2022-12-18T17:56:45;51.70;;;25.43;;
18776;SDS011;9517;51.174;4.160;2022-12-18T17:59:12;48.27;;;24.43;;
18776;SDS011;9517;51.174;4.160;2022-12-18T18:01:39;55.50;;;26.37;;
18776;SDS011;9517;51.174;4.160;2022-12-18T18:04:06;55.30;;;25.73;;
18776;SDS011;9517;51.174;4.160;2022-12-18T18:06:33;56.37;;;25.23;;
18776;SDS011;9517;51.174;4.160;2022-12-18T18:09:00;62.00;;;26.93;;
18776;SDS011;9517;51.174;4.160;2022-12-18T18:11:29;54.70;;;25.87;;
18776;SDS011;9517;51.174;4.160;2022-12-18T18:14:14;53.57;;;25.87;;
18776;SDS011;9517;51.174;4.160;2022-12-18T18:16:43;58.40;;;28.63;;
18776;SDS011;9517;51.174;4.160;2022-12-18T18:19:12;61.03;;;27.73;;
18776;SDS011;9517;51.174;4.160;2022-12-18T18:21:44;63.00;;;28.87;;
18776;SDS011;9517;51.174;4.160;2022-12-18T18:24:13;56.97;;;26.53;;
18776;SDS011;9517;51.174;4.160;2022-12-18T18:26:43;52.93;;;25.73;;
18776;SDS011;9517;51.174;4.160;2022-12-18T18:29:12;56.80;;;26.80;;